createdAt,value
2022-08-01T00:01:16.668Z,87.30
2022-08-01T00:03:46.030Z,87.60
2022-08-01T00:06:13.870Z,87.40
2022-08-01T00:08:41.752Z,87.30
2022-08-01T00:11:10.119Z,86.40
2022-08-01T00:13:38.095Z,87.80
2022-08-01T00:16:06.035Z,87.50
2022-08-01T00:18:33.915Z,87.30
2022-08-01T00:21:03.186Z,87.30
2022-08-01T00:23:31.084Z,87.30
2022-08-01T00:26:01.189Z,87.40
2022-08-01T00:28:29.807Z,87.40
2022-08-01T00:30:57.708Z,87.20
2022-08-01T00:33:25.530Z,87.50
2022-08-01T00:35:53.434Z,90.30
2022-08-01T00:38:22.896Z,86.90
2022-08-01T00:40:51.210Z,88.90
2022-08-01T00:43:19.184Z,88.70
2022-08-01T00:45:47.417Z,87.50
2022-08-01T00:48:15.310Z,87.50
2022-08-01T00:50:43.581Z,87.60
2022-08-01T00:53:19.012Z,87.70
2022-08-01T00:55:49.284Z,88.00
2022-08-01T00:58:17.851Z,87.90
2022-08-01T01:00:53.956Z,87.70
2022-08-01T01:03:43.348Z,88.80
2022-08-01T01:06:28.091Z,89.10
2022-08-01T01:09:07.367Z,88.20
2022-08-01T01:11:44.062Z,89.50
2022-08-01T01:14:22.401Z,88.10
2022-08-01T01:16:51.836Z,88.20
2022-08-01T01:19:30.186Z,87.80
2022-08-01T01:22:26.305Z,88.40
2022-08-01T01:25:09.759Z,88.70
2022-08-01T01:27:47.563Z,90.70
2022-08-01T01:30:17.442Z,90.20
2022-08-01T01:32:50.072Z,90.70
2022-08-01T01:35:23.351Z,89.00
2022-08-01T01:37:58.053Z,89.00
2022-08-01T01:40:27.819Z,89.10
2022-08-01T01:42:57.828Z,90.40
2022-08-01T01:45:28.457Z,89.20
2022-08-01T01:47:58.112Z,89.40
2022-08-01T01:50:26.978Z,90.60
2022-08-01T01:52:56.700Z,89.20
2022-08-01T01:55:27.349Z,89.40
2022-08-01T01:57:57.576Z,89.00
2022-08-01T02:00:28.578Z,89.50
2022-08-01T02:02:58.577Z,89.30
2022-08-01T02:05:29.039Z,90.50
2022-08-01T02:07:59.782Z,89.40
2022-08-01T02:10:29.067Z,89.30
2022-08-01T02:12:59.283Z,90.00
2022-08-01T02:15:31.423Z,89.80
2022-08-01T02:18:01.462Z,89.30
2022-08-01T02:20:31.371Z,89.40
2022-08-01T02:23:07.994Z,89.80
2022-08-01T02:26:09.487Z,90.00
2022-08-01T02:28:33.966Z,89.80
2022-08-01T02:31:08.665Z,89.80
2022-08-01T02:33:39.692Z,91.30
2022-08-01T02:36:32.564Z,90.20
2022-08-01T02:38:58.964Z,90.10
2022-08-01T02:41:29.038Z,90.10
2022-08-01T02:44:03.473Z,90.10
2022-08-01T02:46:38.159Z,90.10
2022-08-01T02:49:08.735Z,90.20
2022-08-01T02:51:38.137Z,90.10
2022-08-01T02:54:08.995Z,89.70
2022-08-01T02:56:38.626Z,90.00
2022-08-01T02:59:08.567Z,90.00
2022-08-01T03:01:38.672Z,91.30
2022-08-01T03:04:10.867Z,90.10
2022-08-01T03:06:40.273Z,90.00
2022-08-01T03:09:13.672Z,90.00
2022-08-01T03:11:44.229Z,89.70
2022-08-01T03:14:14.450Z,89.70
2022-08-01T03:16:45.491Z,89.80
2022-08-01T03:19:15.338Z,90.00
2022-08-01T03:21:45.459Z,89.40
2022-08-01T03:24:14.920Z,89.80
2022-08-01T03:26:45.229Z,90.80
2022-08-01T03:29:18.253Z,89.40
2022-08-01T03:31:49.820Z,90.00
2022-08-01T03:34:18.643Z,90.00
2022-08-01T03:36:50.233Z,90.80
2022-08-01T03:39:20.530Z,89.70
2022-08-01T03:42:01.466Z,90.00
2022-08-01T03:44:33.930Z,90.60
2022-08-01T03:47:09.489Z,91.30
2022-08-01T03:49:43.284Z,90.80
2022-08-01T03:52:11.483Z,90.40
2022-08-01T03:54:42.584Z,90.10
2022-08-01T03:57:23.366Z,90.30
2022-08-01T04:00:01.505Z,90.80
2022-08-01T04:02:31.431Z,91.50
2022-08-01T04:05:00.944Z,91.00
2022-08-01T04:07:30.706Z,90.90
2022-08-01T04:09:59.027Z,89.80
2022-08-01T04:12:28.485Z,90.00
2022-08-01T04:14:56.427Z,90.00
2022-08-01T04:17:24.400Z,90.00
2022-08-01T04:19:53.693Z,89.80
2022-08-01T04:22:21.972Z,91.30
2022-08-01T04:24:56.891Z,90.30
2022-08-01T04:27:48.707Z,90.30
2022-08-01T04:30:20.321Z,90.30
2022-08-01T04:32:50.750Z,90.10
2022-08-01T04:35:23.654Z,90.20
2022-08-01T04:38:11.023Z,90.30
2022-08-01T04:40:40.768Z,90.30
2022-08-01T04:43:09.544Z,90.20
2022-08-01T04:45:38.358Z,90.40
2022-08-01T04:48:08.405Z,90.40
2022-08-01T04:50:38.835Z,90.50
2022-08-01T04:53:06.782Z,90.30
2022-08-01T04:55:34.704Z,90.30
2022-08-01T04:58:05.109Z,90.30
2022-08-01T05:00:34.935Z,91.80
2022-08-01T05:03:02.863Z,91.10
2022-08-01T05:05:31.447Z,90.50
2022-08-01T05:08:01.174Z,90.50
2022-08-01T05:10:29.515Z,90.40
2022-08-01T05:12:57.482Z,91.50
2022-08-01T05:15:25.603Z,90.90
2022-08-01T05:17:53.491Z,90.20
2022-08-01T05:20:21.645Z,90.10
2022-08-01T05:22:49.456Z,90.10
2022-08-01T05:25:20.413Z,90.10
2022-08-01T05:28:06.814Z,90.60
2022-08-01T05:30:34.912Z,89.70
2022-08-01T05:33:02.756Z,90.70
2022-08-01T05:35:47.514Z,89.90
2022-08-01T05:38:16.337Z,88.90
2022-08-01T05:40:45.982Z,90.70
2022-08-01T05:43:13.822Z,90.00
2022-08-01T05:45:42.455Z,90.00
2022-08-01T05:48:10.628Z,90.00
2022-08-01T05:50:38.570Z,90.00
2022-08-01T05:53:06.652Z,90.00
2022-08-01T05:55:34.659Z,90.60
2022-08-01T05:58:04.092Z,90.10
2022-08-01T06:00:32.081Z,90.00
2022-08-01T06:03:00.049Z,90.00
2022-08-01T06:05:27.909Z,90.60
2022-08-01T06:07:55.791Z,90.10
2022-08-01T06:10:23.917Z,90.20
2022-08-01T06:12:51.751Z,90.20
2022-08-01T06:15:21.115Z,91.00
2022-08-01T06:17:49.030Z,90.20
2022-08-01T06:20:17.314Z,90.10
2022-08-01T06:22:45.227Z,90.30
2022-08-01T06:25:21.325Z,90.10
2022-08-01T06:27:50.611Z,90.20
2022-08-01T06:30:20.430Z,90.60
2022-08-01T06:32:48.464Z,90.30
2022-08-01T06:35:16.347Z,90.50
2022-08-01T06:37:45.755Z,91.30
2022-08-01T06:40:17.127Z,90.50
2022-08-01T06:42:46.666Z,90.30
2022-08-01T06:45:15.659Z,91.60
2022-08-01T06:47:50.610Z,90.30
2022-08-01T06:50:19.184Z,90.30
2022-08-01T06:52:47.129Z,90.10
2022-08-01T06:55:15.415Z,90.10
2022-08-01T06:57:50.901Z,90.10
2022-08-01T07:00:23.232Z,89.60
2022-08-01T07:02:52.914Z,89.60
2022-08-01T07:05:21.843Z,89.60
2022-08-01T07:10:18.528Z,89.60
2022-08-01T07:15:15.193Z,90.10
2022-08-01T07:17:44.529Z,90.20
2022-08-01T07:20:16.369Z,90.30
2022-08-01T07:30:12.941Z,90.40
2022-08-01T07:35:09.952Z,90.50
2022-08-01T07:37:45.293Z,90.60
2022-08-01T07:40:17.975Z,90.60
2022-08-01T07:45:15.051Z,90.50
2022-08-01T07:47:43.359Z,90.30
2022-08-01T07:50:11.587Z,90.40
2022-08-01T07:52:40.994Z,90.50
2022-08-01T07:55:10.494Z,90.40
2022-08-01T08:00:09.832Z,90.10
2022-08-01T08:05:07.585Z,90.20
2022-08-01T08:07:35.932Z,90.00
2022-08-01T08:10:07.036Z,90.00
2022-08-01T08:17:35.725Z,90.10
2022-08-01T08:25:08.284Z,90.30
2022-08-01T08:30:08.344Z,90.50
2022-08-01T08:35:05.798Z,90.60
2022-08-01T08:40:09.943Z,90.60
2022-08-01T08:42:38.698Z,90.60
2022-08-01T08:45:12.177Z,90.60
2022-08-01T08:50:09.644Z,90.30
2022-08-01T08:52:41.060Z,90.00
2022-08-01T08:55:12.637Z,89.90
2022-08-01T08:57:41.993Z,89.40
2022-08-01T09:00:12.760Z,89.70
2022-08-01T09:02:43.523Z,89.50
2022-08-01T09:05:14.948Z,89.40
2022-08-01T09:10:15.362Z,89.30
2022-08-01T09:13:08.039Z,89.50
2022-08-01T09:15:44.573Z,89.50
2022-08-01T09:18:28.678Z,89.40
2022-08-01T09:21:17.926Z,89.40
2022-08-01T09:23:53.515Z,88.80
2022-08-01T09:26:31.472Z,89.00
2022-08-01T09:29:01.264Z,88.10
2022-08-01T09:31:38.118Z,87.60
2022-08-01T09:36:51.399Z,87.10
2022-08-01T09:39:24.383Z,86.10
2022-08-01T09:41:54.982Z,85.30
2022-08-01T09:44:42.476Z,84.80
2022-08-01T09:47:15.626Z,84.90
2022-08-01T09:49:50.829Z,83.70
2022-08-01T09:52:21.550Z,81.80
2022-08-01T09:54:56.945Z,83.80
2022-08-01T09:57:26.625Z,83.40
2022-08-01T10:00:01.450Z,83.00
2022-08-01T10:02:33.055Z,82.70
2022-08-01T10:05:03.755Z,82.70
2022-08-01T10:07:43.575Z,83.00
2022-08-01T10:10:14.880Z,82.90
2022-08-01T10:12:45.721Z,83.00
2022-08-01T10:15:16.619Z,82.50
2022-08-01T10:17:57.068Z,82.10
2022-08-01T10:20:30.886Z,82.10
2022-08-01T10:23:06.174Z,81.70
2022-08-01T10:25:42.166Z,80.90
2022-08-01T10:28:17.860Z,80.80
2022-08-01T10:30:49.435Z,80.50
2022-08-01T10:33:49.652Z,80.60
2022-08-01T10:36:08.560Z,79.40
2022-08-01T10:41:08.790Z,78.40
2022-08-01T10:43:38.955Z,77.90
2022-08-01T10:46:10.354Z,77.30
2022-08-01T10:48:47.107Z,76.70
2022-08-01T10:51:19.085Z,77.40
2022-08-01T10:53:53.938Z,75.90
2022-08-01T10:59:06.540Z,75.00
2022-08-01T11:04:17.775Z,74.60
2022-08-01T11:07:04.854Z,73.80
2022-08-01T11:09:40.974Z,73.50
2022-08-01T11:12:18.563Z,73.30
2022-08-01T11:15:29.114Z,71.80
2022-08-01T11:18:04.812Z,71.30
2022-08-01T11:20:41.595Z,72.60
2022-08-01T11:23:20.082Z,70.90
2022-08-01T11:26:18.550Z,70.00
2022-08-01T11:29:21.649Z,70.80
2022-08-01T11:31:52.643Z,70.50
2022-08-01T11:39:27.811Z,70.30
2022-08-01T11:42:19.090Z,70.60
2022-08-01T11:44:52.155Z,71.00
2022-08-01T11:47:45.520Z,70.60
2022-08-01T11:50:32.172Z,70.00
2022-08-01T11:53:00.718Z,70.00
2022-08-01T11:55:31.538Z,70.70
2022-08-01T11:58:04.741Z,68.60
2022-08-01T12:03:04.533Z,68.90
2022-08-01T12:05:35.192Z,67.60
2022-08-01T12:08:03.669Z,65.60
2022-08-01T12:10:47.003Z,66.90
2022-08-01T12:18:13.824Z,65.10
2022-08-01T12:20:56.216Z,64.80
2022-08-01T12:25:54.089Z,64.00
2022-08-01T12:30:51.104Z,63.70
2022-08-01T12:33:22.184Z,63.10
2022-08-01T12:38:20.217Z,62.90
2022-08-01T12:40:53.240Z,63.30
2022-08-01T12:43:28.141Z,62.50
2022-08-01T12:48:28.085Z,61.40
2022-08-01T12:50:59.157Z,57.70
2022-08-01T13:01:08.476Z,57.70
2022-08-01T13:03:41.080Z,57.50
2022-08-01T13:06:13.695Z,56.60
2022-08-01T13:08:41.760Z,57.60
2022-08-01T13:11:14.715Z,57.20
2022-08-01T13:13:43.970Z,57.00
2022-08-01T13:16:25.909Z,57.40
2022-08-01T13:19:03.120Z,55.70
2022-08-01T13:21:34.588Z,55.80
2022-08-01T13:24:26.921Z,54.80
2022-08-01T13:27:00.524Z,54.30
2022-08-01T13:29:33.830Z,54.50
2022-08-01T13:32:02.189Z,54.30
2022-08-01T13:34:35.960Z,54.50
2022-08-01T13:37:04.361Z,54.10
2022-08-01T13:39:48.414Z,53.60
2022-08-01T13:42:19.355Z,53.10
2022-08-01T13:44:47.895Z,48.90
2022-08-01T13:49:46.357Z,51.80
2022-08-01T13:57:11.405Z,52.50
2022-08-01T14:02:08.318Z,52.10
2022-08-01T14:04:36.636Z,51.80
2022-08-01T14:07:10.747Z,51.30
2022-08-01T14:12:26.116Z,51.60
2022-08-01T14:19:50.846Z,49.20
2022-08-01T14:22:20.186Z,50.00
2022-08-01T14:24:50.201Z,48.90
2022-08-01T14:27:18.208Z,48.60
2022-08-01T14:30:01.157Z,48.30
2022-08-01T14:32:31.552Z,48.50
2022-08-01T14:34:59.492Z,48.70
2022-08-01T14:37:31.732Z,48.00
2022-08-01T14:40:05.659Z,46.90
2022-08-01T14:45:05.000Z,47.90
2022-08-01T14:50:01.178Z,48.10
2022-08-01T14:52:30.427Z,47.40
2022-08-01T14:54:58.321Z,47.00
2022-08-01T14:57:26.284Z,47.10
2022-08-01T14:59:54.257Z,46.30
2022-08-01T15:02:22.439Z,45.60
2022-08-01T15:04:51.634Z,44.60
2022-08-01T15:07:20.542Z,44.00
2022-08-01T15:09:49.946Z,43.70
2022-08-01T15:14:51.688Z,41.20
2022-08-01T15:17:22.527Z,43.20
2022-08-01T15:19:53.470Z,43.00
2022-08-01T15:22:24.919Z,43.20
2022-08-01T15:24:57.501Z,42.70
2022-08-01T15:27:26.073Z,39.40
2022-08-01T15:29:56.081Z,41.90
2022-08-01T15:32:24.604Z,43.00
2022-08-01T15:34:52.619Z,43.10
2022-08-01T15:37:22.326Z,43.40
2022-08-01T15:39:54.715Z,44.20
2022-08-01T15:42:27.097Z,41.40
2022-08-01T15:44:55.259Z,42.30
2022-08-01T15:47:25.046Z,42.30
2022-08-01T15:49:53.269Z,41.70
2022-08-01T15:52:23.163Z,40.10
2022-08-01T15:55:00.063Z,39.40
2022-08-01T15:57:28.011Z,39.70
2022-08-01T15:59:56.160Z,38.90
2022-08-01T16:02:24.495Z,39.00
2022-08-01T16:04:52.404Z,39.00
2022-08-01T16:07:20.431Z,38.20
2022-08-01T16:09:48.508Z,37.70
2022-08-01T16:12:17.860Z,37.20
2022-08-01T16:14:45.688Z,35.90
2022-08-01T16:17:13.619Z,36.50
2022-08-01T16:19:42.035Z,36.50
2022-08-01T16:22:10.199Z,35.70
2022-08-01T16:24:38.214Z,35.70
2022-08-01T16:27:06.379Z,35.50
2022-08-01T16:29:35.860Z,35.90
2022-08-01T16:32:08.336Z,35.30
2022-08-01T16:34:46.975Z,35.60
2022-08-01T16:37:15.875Z,35.60
2022-08-01T16:39:45.745Z,35.00
2022-08-01T16:42:15.434Z,33.00
2022-08-01T16:44:45.478Z,34.40
2022-08-01T16:47:17.817Z,35.50
2022-08-01T16:49:48.113Z,33.60
2022-08-01T16:52:20.304Z,33.50
2022-08-01T16:54:50.748Z,33.10
2022-08-01T16:57:18.605Z,32.30
2022-08-01T16:59:47.818Z,32.70
2022-08-01T17:02:16.415Z,32.70
2022-08-01T17:04:47.074Z,33.00
2022-08-01T17:07:15.304Z,34.20
2022-08-01T17:09:43.784Z,34.00
2022-08-01T17:12:14.373Z,34.40
2022-08-01T17:14:56.667Z,35.10
2022-08-01T17:17:27.733Z,35.70
2022-08-01T17:19:55.976Z,36.40
2022-08-01T17:22:24.282Z,37.40
2022-08-01T17:24:54.247Z,37.90
2022-08-01T17:27:22.295Z,38.40
2022-08-01T17:29:53.251Z,37.90
2022-08-01T17:32:21.160Z,38.20
2022-08-01T17:34:50.164Z,38.60
2022-08-01T17:37:20.965Z,38.70
2022-08-01T17:39:50.753Z,39.10
2022-08-01T17:44:54.235Z,39.60
2022-08-01T17:47:49.282Z,39.80
2022-08-01T17:50:14.234Z,40.00
2022-08-01T17:55:53.783Z,40.30
2022-08-01T17:57:58.937Z,40.60
2022-08-01T18:02:56.396Z,41.30
2022-08-01T18:05:36.673Z,41.10
2022-08-01T18:08:06.535Z,40.80
2022-08-01T18:18:07.323Z,41.20
2022-08-01T18:20:36.781Z,41.40
2022-08-01T18:25:36.688Z,41.90
2022-08-01T18:33:25.054Z,42.60
2022-08-01T18:40:57.226Z,43.30
2022-08-01T18:43:25.099Z,43.70
2022-08-01T18:48:22.551Z,44.20
2022-08-01T18:53:20.790Z,44.60
2022-08-01T19:00:46.475Z,45.10
2022-08-01T19:05:45.965Z,45.50
2022-08-01T19:18:09.196Z,46.30
2022-08-01T19:23:32.372Z,46.60
2022-08-01T19:28:40.112Z,46.90
2022-08-01T19:31:10.522Z,47.00
2022-08-01T19:33:43.322Z,47.10
2022-08-01T19:36:17.762Z,47.30
2022-08-01T19:38:47.737Z,47.90
2022-08-01T19:41:17.264Z,47.90
2022-08-01T19:43:46.807Z,47.90
2022-08-01T19:48:53.601Z,48.40
2022-08-01T19:51:33.396Z,48.70
2022-08-01T19:54:07.257Z,49.00
2022-08-01T19:56:39.726Z,49.30
2022-08-01T19:59:09.234Z,49.50
2022-08-01T20:09:06.539Z,51.00
2022-08-01T20:16:33.833Z,52.20
2022-08-01T20:24:02.434Z,53.00
2022-08-01T20:26:32.723Z,53.20
2022-08-01T20:29:03.648Z,53.40
2022-08-01T20:34:13.589Z,53.80
2022-08-01T20:36:48.085Z,54.10
2022-08-01T20:39:25.146Z,54.20
2022-08-01T20:41:59.950Z,54.80
2022-08-01T20:49:33.934Z,55.20
2022-08-01T20:54:42.644Z,55.90
2022-08-01T20:57:16.926Z,55.70
2022-08-01T20:59:55.694Z,55.90
2022-08-01T21:02:38.758Z,56.00
2022-08-01T21:05:10.781Z,55.90
2022-08-01T21:07:43.465Z,55.90
2022-08-01T21:10:16.353Z,57.40
2022-08-01T21:12:49.964Z,57.50
2022-08-01T21:15:26.698Z,58.80
2022-08-01T21:17:58.939Z,58.70
2022-08-01T21:20:31.264Z,58.50
2022-08-01T21:23:15.475Z,58.50
2022-08-01T21:25:44.222Z,58.30
2022-08-01T21:28:16.158Z,58.50
2022-08-01T21:30:55.539Z,58.50
2022-08-01T21:33:28.030Z,58.70
2022-08-01T21:36:05.797Z,59.00
2022-08-01T21:41:04.335Z,59.30
2022-08-01T21:43:35.326Z,59.60
2022-08-01T21:46:04.400Z,59.80
2022-08-01T21:48:33.030Z,60.00
2022-08-01T21:51:04.988Z,60.10
2022-08-01T21:53:43.544Z,60.20
2022-08-01T21:56:25.305Z,60.40
2022-08-01T21:59:04.767Z,60.70
2022-08-01T22:01:51.393Z,60.70
2022-08-01T22:04:29.685Z,62.10
2022-08-01T22:07:00.110Z,61.80
2022-08-01T22:09:29.857Z,61.90
2022-08-01T22:12:02.267Z,61.70
2022-08-01T22:14:34.068Z,61.70
2022-08-01T22:17:02.875Z,61.90
2022-08-01T22:22:51.893Z,62.10
2022-08-01T22:28:08.691Z,62.10
2022-08-01T22:30:21.564Z,62.30
2022-08-01T22:33:07.811Z,62.30
2022-08-01T22:35:40.103Z,62.60
2022-08-01T22:38:09.856Z,62.70
2022-08-01T22:40:44.974Z,62.90
2022-08-01T22:43:19.587Z,63.00
2022-08-01T22:45:52.750Z,63.10
2022-08-01T22:48:32.714Z,63.30
2022-08-01T22:51:07.889Z,63.10
2022-08-01T22:53:43.743Z,63.40
2022-08-01T22:56:12.927Z,63.50
2022-08-01T22:58:42.321Z,63.90
2022-08-01T23:01:21.065Z,63.60
2022-08-01T23:03:51.766Z,63.90
2022-08-01T23:06:36.417Z,63.80
2022-08-01T23:09:04.495Z,63.80
2022-08-01T23:11:34.404Z,64.30
2022-08-01T23:14:04.140Z,64.10
2022-08-01T23:16:33.693Z,64.40
2022-08-01T23:19:02.223Z,64.40
2022-08-01T23:21:30.836Z,64.50
2022-08-01T23:23:59.701Z,64.50
2022-08-01T23:26:30.016Z,64.50
2022-08-01T23:28:59.354Z,64.50
2022-08-01T23:32:03.560Z,64.40
2022-08-01T23:34:20.018Z,64.50
2022-08-01T23:36:48.278Z,64.50
2022-08-01T23:39:16.151Z,64.50
2022-08-01T23:49:30.733Z,64.90
2022-08-01T23:51:58.722Z,65.50
2022-08-01T23:54:26.778Z,65.60
2022-08-01T23:56:55.445Z,65.60
